createdAt,value
2022-11-06T00:00:04.596Z,72.23
2022-11-06T00:01:04.560Z,72.54
2022-11-06T00:02:04.618Z,72.33
2022-11-06T00:03:04.671Z,72.27
2022-11-06T00:04:04.543Z,72.06
2022-11-06T00:05:04.514Z,71.64
2022-11-06T00:06:04.509Z,70.51
2022-11-06T00:07:04.509Z,70.00
2022-11-06T00:08:04.486Z,69.69
2022-11-06T00:09:04.503Z,69.31
2022-11-06T00:10:04.474Z,69.00
2022-11-06T00:11:04.446Z,68.59
2022-11-06T00:12:04.441Z,67.97
2022-11-06T00:13:04.444Z,67.24
2022-11-06T00:14:04.407Z,67.14
2022-11-06T00:15:04.440Z,66.52
2022-11-06T00:16:04.393Z,66.11
2022-11-06T00:17:04.440Z,65.80
2022-11-06T00:18:04.366Z,64.46
2022-11-06T00:19:04.361Z,64.77
2022-11-06T00:20:04.374Z,64.36
2022-11-06T00:21:04.338Z,64.25
2022-11-06T00:22:04.330Z,64.25
2022-11-06T00:23:04.325Z,64.04
2022-11-06T00:24:04.289Z,64.25
2022-11-06T00:25:04.280Z,64.25
2022-11-06T00:26:04.863Z,64.77
2022-11-06T00:27:04.392Z,64.56
2022-11-06T00:28:04.266Z,64.36
2022-11-06T00:29:04.237Z,64.36
2022-11-06T00:30:04.242Z,64.25
2022-11-06T00:31:04.245Z,64.25
2022-11-06T00:32:04.239Z,64.25
2022-11-06T00:33:04.188Z,64.46
2022-11-06T00:34:04.197Z,64.04
2022-11-06T00:35:04.194Z,63.95
2022-11-06T00:36:04.162Z,63.74
2022-11-06T00:37:04.186Z,63.53
2022-11-06T00:38:04.174Z,63.43
2022-11-06T00:39:04.171Z,63.43
2022-11-06T00:40:04.219Z,63.12
2022-11-06T00:41:04.124Z,63.12
2022-11-06T00:42:04.103Z,62.81
2022-11-06T00:43:04.185Z,62.71
2022-11-06T00:44:04.071Z,62.40
2022-11-06T00:45:04.058Z,62.08
2022-11-06T00:46:04.221Z,62.32
2022-11-06T00:47:04.029Z,62.12
2022-11-06T00:48:04.032Z,61.80
2022-11-06T00:49:04.371Z,61.60
2022-11-06T00:50:04.008Z,61.19
2022-11-06T00:51:04.290Z,61.29
2022-11-06T00:52:03.980Z,61.19
2022-11-06T00:53:03.970Z,60.77
2022-11-06T00:54:03.985Z,60.57
2022-11-06T00:55:03.942Z,60.26
2022-11-06T00:56:03.931Z,60.36
2022-11-06T00:57:03.958Z,60.47
2022-11-06T00:58:03.911Z,59.84
2022-11-06T00:59:03.916Z,59.84
2022-11-06T01:00:04.489Z,59.84
2022-11-06T01:01:03.975Z,60.05
2022-11-06T01:02:04.066Z,59.95
2022-11-06T01:03:04.011Z,59.95
2022-11-06T01:04:03.840Z,59.53
2022-11-06T01:05:03.835Z,59.64
2022-11-06T01:06:03.845Z,59.74
2022-11-06T01:07:03.816Z,59.44
2022-11-06T01:08:03.807Z,59.33
2022-11-06T01:09:03.795Z,58.92
2022-11-06T01:10:03.780Z,59.02
2022-11-06T01:11:03.804Z,59.02
2022-11-06T01:12:13.409Z,58.71
2022-11-06T01:13:04.965Z,58.61
2022-11-06T01:14:03.755Z,58.61
2022-11-06T01:15:03.722Z,58.50
2022-11-06T01:16:03.703Z,58.50
2022-11-06T01:17:03.736Z,58.09
2022-11-06T01:18:03.685Z,57.78
2022-11-06T01:19:03.674Z,57.47
2022-11-06T01:20:03.663Z,57.57
2022-11-06T01:21:03.649Z,57.26
2022-11-06T01:22:03.633Z,57.17
2022-11-06T01:23:03.695Z,57.17
2022-11-06T01:24:03.636Z,56.96
2022-11-06T01:25:03.600Z,56.85
2022-11-06T01:26:03.608Z,56.65
2022-11-06T01:27:27.595Z,56.65
2022-11-06T01:28:04.585Z,56.44
2022-11-06T01:29:03.587Z,55.72
2022-11-06T01:30:03.536Z,55.62
2022-11-06T01:31:03.572Z,55.93
2022-11-06T01:32:03.546Z,55.72
2022-11-06T01:33:03.614Z,55.72
2022-11-06T01:34:03.528Z,55.72
2022-11-06T01:35:03.855Z,55.72
2022-11-06T01:36:03.492Z,55.41
2022-11-06T01:37:03.975Z,55.20
2022-11-06T01:38:03.498Z,55.30
2022-11-06T01:39:03.447Z,55.10
2022-11-06T01:40:03.433Z,55.20
2022-11-06T01:41:03.652Z,55.10
2022-11-06T01:42:03.406Z,55.20
2022-11-06T01:43:03.412Z,54.90
2022-11-06T01:44:06.153Z,55.10
2022-11-06T01:45:04.386Z,55.10
2022-11-06T01:46:03.776Z,55.10
2022-11-06T01:47:03.390Z,55.00
2022-11-06T01:48:03.367Z,55.41
2022-11-06T01:49:03.398Z,55.62
2022-11-06T01:50:03.316Z,55.51
2022-11-06T01:51:03.309Z,55.62
2022-11-06T01:52:03.297Z,55.72
2022-11-06T01:53:03.309Z,55.51
2022-11-06T01:54:03.283Z,55.51
2022-11-06T01:55:03.267Z,55.62
2022-11-06T01:56:03.314Z,55.51
2022-11-06T01:57:03.300Z,55.62
2022-11-06T01:58:03.476Z,55.72
2022-11-06T01:59:03.237Z,55.62
2022-11-06T02:00:03.233Z,55.62
2022-11-06T02:01:03.201Z,55.72
2022-11-06T02:02:03.289Z,55.62
2022-11-06T02:03:03.231Z,55.51
2022-11-06T02:04:03.159Z,55.41
2022-11-06T02:05:03.377Z,55.10
2022-11-06T02:06:03.138Z,55.20
2022-11-06T02:07:03.129Z,54.90
2022-11-06T02:08:03.138Z,54.97
2022-11-06T02:09:03.097Z,54.86
2022-11-06T02:10:03.142Z,54.97
2022-11-06T02:11:03.218Z,54.97
2022-11-06T02:12:03.068Z,55.10
2022-11-06T02:13:03.057Z,55.10
2022-11-06T02:14:03.043Z,55.10
2022-11-06T02:15:03.041Z,54.90
2022-11-06T02:16:03.397Z,54.90
2022-11-06T02:17:03.010Z,54.77
2022-11-06T02:18:02.999Z,54.77
2022-11-06T02:19:03.007Z,54.66
2022-11-06T02:20:02.981Z,54.66
2022-11-06T02:21:02.980Z,54.66
2022-11-06T02:22:03.011Z,54.66
2022-11-06T02:23:03.223Z,54.66
2022-11-06T02:24:02.943Z,54.77
2022-11-06T02:25:02.914Z,54.77
2022-11-06T02:26:02.910Z,54.77
2022-11-06T02:27:02.909Z,54.97
2022-11-06T02:28:02.910Z,55.07
2022-11-06T02:29:02.873Z,55.07
2022-11-06T02:30:02.873Z,55.18
2022-11-06T02:31:02.890Z,55.59
2022-11-06T02:32:02.929Z,55.69
2022-11-06T02:33:02.868Z,55.90
2022-11-06T02:34:02.821Z,56.10
2022-11-06T02:35:02.814Z,56.21
2022-11-06T02:36:02.806Z,56.31
2022-11-06T02:37:02.781Z,56.41
2022-11-06T02:38:02.774Z,56.52
2022-11-06T02:39:02.789Z,56.62
2022-11-06T02:40:02.757Z,56.62
2022-11-06T02:41:02.826Z,56.62
2022-11-06T02:42:02.732Z,56.62
2022-11-06T02:43:02.755Z,56.62
2022-11-06T02:44:02.734Z,56.83
2022-11-06T02:45:03.410Z,56.93
2022-11-06T02:46:02.696Z,56.93
2022-11-06T02:47:02.685Z,57.14
2022-11-06T02:48:02.935Z,57.24
2022-11-06T02:49:02.652Z,57.24
2022-11-06T02:50:02.683Z,57.14
2022-11-06T02:51:02.624Z,57.14
2022-11-06T02:52:02.617Z,57.24
2022-11-06T02:53:02.610Z,57.34
2022-11-06T02:54:02.752Z,57.47
2022-11-06T02:55:02.576Z,57.47
2022-11-06T02:56:02.586Z,57.57
2022-11-06T02:57:02.563Z,57.57
2022-11-06T02:58:02.558Z,57.68
2022-11-06T02:59:02.971Z,57.89
2022-11-06T03:00:02.536Z,57.89
2022-11-06T03:01:02.557Z,58.09
2022-11-06T03:02:02.593Z,57.89
2022-11-06T03:03:02.540Z,57.89
2022-11-06T03:04:02.758Z,57.99
2022-11-06T03:05:02.476Z,57.99
2022-11-06T03:06:02.469Z,57.99
2022-11-06T03:07:02.494Z,57.99
2022-11-06T03:08:02.427Z,57.99
2022-11-06T03:09:02.425Z,58.30
2022-11-06T03:10:02.411Z,58.20
2022-11-06T03:11:02.399Z,58.12
2022-11-06T03:12:02.385Z,58.43
2022-11-06T03:13:02.440Z,58.33
2022-11-06T03:14:02.368Z,58.33
2022-11-06T03:15:02.348Z,58.53
2022-11-06T03:16:02.348Z,58.25
2022-11-06T03:17:02.334Z,57.40
2022-11-06T03:18:02.307Z,57.29
2022-11-06T03:19:02.759Z,57.09
2022-11-06T03:20:02.287Z,57.09
2022-11-06T03:21:02.288Z,57.01
2022-11-06T03:22:02.298Z,56.70
2022-11-06T03:23:02.846Z,56.70
2022-11-06T03:24:02.278Z,56.39
2022-11-06T03:25:02.236Z,56.08
2022-11-06T03:26:02.240Z,55.87
2022-11-06T03:27:02.217Z,55.87
2022-11-06T03:28:02.201Z,55.56
2022-11-06T03:29:02.194Z,55.46
2022-11-06T03:30:02.208Z,55.36
2022-11-06T03:31:02.179Z,54.74
2022-11-06T03:32:02.157Z,54.53
2022-11-06T03:33:02.182Z,54.30
2022-11-06T03:34:02.138Z,54.19
2022-11-06T03:35:02.153Z,54.19
2022-11-06T03:36:02.132Z,54.09
2022-11-06T03:37:02.116Z,54.02
2022-11-06T03:38:02.092Z,53.91
2022-11-06T03:39:02.078Z,53.81
2022-11-06T03:40:02.066Z,54.12
2022-11-06T03:41:02.092Z,53.70
2022-11-06T03:42:02.359Z,53.50
2022-11-06T03:43:02.037Z,53.39
2022-11-06T03:44:02.020Z,53.29
2022-11-06T03:45:02.004Z,53.19
2022-11-06T03:46:02.004Z,53.08
2022-11-06T03:47:02.070Z,52.98
2022-11-06T03:48:01.988Z,53.08
2022-11-06T03:49:01.958Z,52.98
2022-11-06T03:50:01.977Z,53.19
2022-11-06T03:51:01.946Z,53.19
2022-11-06T03:52:01.955Z,52.88
2022-11-06T03:53:01.911Z,52.98
2022-11-06T03:54:01.913Z,52.88
2022-11-06T03:55:01.908Z,52.98
2022-11-06T03:56:01.879Z,52.57
2022-11-06T03:57:01.911Z,52.57
2022-11-06T03:58:01.894Z,52.57
2022-11-06T03:59:01.892Z,52.67
2022-11-06T04:00:01.842Z,53.08
2022-11-06T04:01:01.851Z,52.98
2022-11-06T04:02:01.941Z,52.88
2022-11-06T04:03:01.836Z,52.88
2022-11-06T04:04:01.848Z,52.78
2022-11-06T04:05:01.782Z,52.78
2022-11-06T04:06:01.775Z,52.78
2022-11-06T04:07:01.755Z,52.57
2022-11-06T04:08:01.790Z,52.67
2022-11-06T04:09:01.733Z,52.36
2022-11-06T04:10:01.743Z,52.26
2022-11-06T04:11:01.966Z,52.36
2022-11-06T04:12:01.712Z,52.15
2022-11-06T04:13:01.688Z,52.26
2022-11-06T04:14:01.675Z,52.15
2022-11-06T04:15:01.708Z,52.05
2022-11-06T04:16:01.654Z,52.05
2022-11-06T04:17:01.678Z,52.05
2022-11-06T04:18:01.641Z,52.15
2022-11-06T04:19:01.634Z,52.08
2022-11-06T04:20:01.604Z,51.95
2022-11-06T04:21:01.626Z,51.54
2022-11-06T04:22:01.614Z,51.64
2022-11-06T04:23:01.574Z,51.43
2022-11-06T04:24:01.564Z,51.33
2022-11-06T04:25:01.575Z,51.33
2022-11-06T04:26:01.537Z,51.02
2022-11-06T04:27:01.596Z,51.23
2022-11-06T04:28:01.534Z,51.12
2022-11-06T04:29:01.507Z,51.12
2022-11-06T04:30:01.510Z,51.12
2022-11-06T04:31:01.509Z,50.81
2022-11-06T04:32:01.518Z,50.79
2022-11-06T04:33:01.468Z,50.79
2022-11-06T04:34:01.447Z,50.79
2022-11-06T04:35:01.449Z,50.68
2022-11-06T04:36:01.456Z,50.68
2022-11-06T04:37:01.435Z,50.68
2022-11-06T04:38:01.477Z,50.79
2022-11-06T04:39:01.395Z,50.79
2022-11-06T04:40:01.986Z,50.79
2022-11-06T04:41:01.563Z,50.79
2022-11-06T04:42:01.370Z,50.89
2022-11-06T04:43:01.345Z,51.10
2022-11-06T04:44:01.376Z,50.99
2022-11-06T04:45:01.334Z,50.99
2022-11-06T04:46:01.387Z,51.10
2022-11-06T04:47:01.324Z,51.10
2022-11-06T04:48:01.303Z,51.20
2022-11-06T04:49:01.634Z,51.10
2022-11-06T04:50:01.275Z,51.31
2022-11-06T04:51:01.530Z,51.41
2022-11-06T04:52:01.355Z,51.51
2022-11-06T04:53:01.235Z,51.62
2022-11-06T04:54:01.267Z,51.72
2022-11-06T04:55:01.237Z,51.72
2022-11-06T04:56:01.649Z,51.72
2022-11-06T04:57:01.196Z,51.82
2022-11-06T04:58:01.200Z,51.82
2022-11-06T04:59:01.182Z,51.92
2022-11-06T05:00:01.595Z,52.03
2022-11-06T05:01:01.404Z,52.03
2022-11-06T05:02:01.303Z,52.13
2022-11-06T05:03:01.120Z,52.13
2022-11-06T05:04:01.142Z,52.23
2022-11-06T05:05:01.110Z,52.34
2022-11-06T05:06:01.533Z,52.55
2022-11-06T05:07:01.100Z,52.52
2022-11-06T05:08:01.159Z,52.62
2022-11-06T05:09:01.059Z,53.03
2022-11-06T05:10:01.179Z,53.03
2022-11-06T05:11:01.038Z,53.34
2022-11-06T05:12:01.085Z,53.45
2022-11-06T05:13:01.012Z,53.76
2022-11-06T05:14:00.991Z,53.96
2022-11-06T05:15:01.021Z,54.06
2022-11-06T05:16:00.973Z,54.27
2022-11-06T05:17:01.005Z,54.38
2022-11-06T05:18:01.043Z,54.58
2022-11-06T05:19:00.940Z,54.79
2022-11-06T05:20:01.055Z,54.90
2022-11-06T05:21:01.060Z,54.90
2022-11-06T05:22:00.910Z,55.00
2022-11-06T05:23:01.100Z,55.10
2022-11-06T05:24:00.937Z,55.30
2022-11-06T05:25:00.912Z,55.43
2022-11-06T05:26:00.868Z,55.43
2022-11-06T05:27:00.855Z,55.54
2022-11-06T05:28:00.849Z,55.54
2022-11-06T05:29:01.238Z,55.54
2022-11-06T05:30:01.056Z,55.54
2022-11-06T05:31:00.802Z,55.64
2022-11-06T05:32:00.805Z,55.64
2022-11-06T05:33:00.803Z,55.43
2022-11-06T05:34:00.767Z,55.54
2022-11-06T05:35:00.796Z,55.43
2022-11-06T05:36:00.810Z,55.54
2022-11-06T05:37:00.843Z,55.43
2022-11-06T05:38:00.766Z,55.54
2022-11-06T05:39:00.715Z,55.43
2022-11-06T05:40:00.730Z,55.33
2022-11-06T05:41:00.804Z,55.33
2022-11-06T05:42:00.685Z,55.23
2022-11-06T05:43:00.696Z,55.23
2022-11-06T05:44:00.718Z,55.23
2022-11-06T05:45:00.636Z,55.23
2022-11-06T05:46:00.834Z,55.23
2022-11-06T05:47:00.738Z,55.13
2022-11-06T05:48:00.865Z,55.23
2022-11-06T05:49:00.609Z,55.23
2022-11-06T05:50:00.653Z,55.43
2022-11-06T05:51:00.573Z,55.54
2022-11-06T05:52:00.567Z,55.64
2022-11-06T05:53:00.575Z,55.74
2022-11-06T05:54:00.555Z,55.74
2022-11-06T05:55:00.527Z,55.85
2022-11-06T05:56:00.517Z,55.85
2022-11-06T05:57:00.518Z,55.64
2022-11-06T05:58:00.515Z,55.85
2022-11-06T05:59:00.505Z,55.95
2022-11-06T06:00:00.499Z,55.95
2022-11-06T06:01:00.459Z,56.05
2022-11-06T06:02:00.663Z,56.05
2022-11-06T06:03:00.561Z,56.26
2022-11-06T06:04:00.477Z,56.26
2022-11-06T06:05:00.428Z,56.37
2022-11-06T06:06:00.396Z,56.37
2022-11-06T06:07:00.429Z,56.46
2022-11-06T06:08:00.391Z,56.67
2022-11-06T06:09:00.379Z,56.88
2022-11-06T06:10:00.389Z,56.77
2022-11-06T06:11:00.347Z,56.67
2022-11-06T06:12:00.416Z,56.77
2022-11-06T06:13:00.323Z,56.57
2022-11-06T06:14:01.007Z,56.77
2022-11-06T06:15:00.302Z,56.67
2022-11-06T06:16:00.325Z,56.77
2022-11-06T06:17:00.369Z,56.67
2022-11-06T06:18:00.262Z,56.77
2022-11-06T06:19:00.278Z,56.98
2022-11-06T06:20:00.273Z,56.88
2022-11-06T06:21:00.325Z,57.09
2022-11-06T06:22:00.218Z,57.29
2022-11-06T06:23:00.209Z,57.29
2022-11-06T06:24:00.199Z,57.50
2022-11-06T06:25:00.668Z,57.60
2022-11-06T06:26:00.271Z,57.94
2022-11-06T06:27:00.339Z,57.84
2022-11-06T06:28:00.163Z,57.73
2022-11-06T06:29:00.307Z,57.73
2022-11-06T06:30:00.137Z,57.73
2022-11-06T06:31:01.804Z,57.84
2022-11-06T06:32:00.112Z,57.73
2022-11-06T06:33:00.126Z,58.04
2022-11-06T06:34:00.471Z,58.15
2022-11-06T06:35:00.247Z,57.94
2022-11-06T06:36:00.061Z,57.94
2022-11-06T06:37:00.092Z,58.25
2022-11-06T06:38:00.044Z,58.15
2022-11-06T06:39:00.041Z,58.04
2022-11-06T06:40:00.010Z,58.04
2022-11-06T06:41:00.002Z,58.25
2022-11-06T06:41:59.992Z,58.15
2022-11-06T06:42:59.995Z,58.35
2022-11-06T06:44:00.121Z,58.15
2022-11-06T06:45:00.135Z,58.15
2022-11-06T06:45:59.947Z,57.94
2022-11-06T06:46:59.934Z,57.84
2022-11-06T06:47:59.924Z,57.94
2022-11-06T06:48:59.912Z,58.04
2022-11-06T06:49:59.970Z,58.15
2022-11-06T06:50:59.882Z,58.04
2022-11-06T06:51:59.874Z,58.15
2022-11-06T06:52:59.883Z,58.15
2022-11-06T06:53:59.861Z,58.04
2022-11-06T06:54:59.903Z,58.04
2022-11-06T06:55:59.884Z,58.25
2022-11-06T06:56:59.830Z,58.15
2022-11-06T06:57:59.819Z,58.15
2022-11-06T06:58:59.821Z,58.56
2022-11-06T06:59:59.803Z,58.56
2022-11-06T07:00:59.839Z,58.45
2022-11-06T07:01:59.840Z,58.56
2022-11-06T07:02:59.752Z,58.45
2022-11-06T07:04:03.995Z,58.66
2022-11-06T07:04:59.753Z,58.35
2022-11-06T07:05:59.759Z,58.45
2022-11-06T07:06:59.723Z,58.45
2022-11-06T07:07:59.693Z,58.25
2022-11-06T07:08:59.682Z,58.25
2022-11-06T07:09:59.693Z,58.25
2022-11-06T07:10:59.679Z,58.45
2022-11-06T07:11:59.692Z,58.76
2022-11-06T07:12:59.699Z,58.66
2022-11-06T07:13:59.684Z,58.66
2022-11-06T07:14:59.614Z,58.76
2022-11-06T07:15:59.698Z,58.87
2022-11-06T07:16:59.600Z,59.08
2022-11-06T07:17:59.635Z,58.87
2022-11-06T07:18:59.575Z,58.87
2022-11-06T07:19:59.563Z,59.18
2022-11-06T07:20:59.557Z,59.28
2022-11-06T07:21:59.568Z,58.97
2022-11-06T07:22:59.595Z,58.97
2022-11-06T07:24:00.048Z,59.49
2022-11-06T07:24:59.498Z,59.28
2022-11-06T07:25:59.509Z,59.49
2022-11-06T07:26:59.496Z,59.59
2022-11-06T07:28:02.700Z,59.69
2022-11-06T07:28:59.507Z,59.59
2022-11-06T07:29:59.451Z,59.69
2022-11-06T07:30:59.437Z,59.69
2022-11-06T07:31:59.497Z,60.00
2022-11-06T07:32:59.466Z,59.80
2022-11-06T07:33:59.417Z,60.31
2022-11-06T07:34:59.410Z,60.42
2022-11-06T07:35:59.378Z,60.42
2022-11-06T07:37:02.008Z,60.93
2022-11-06T07:38:00.366Z,61.14
2022-11-06T07:38:59.355Z,61.35
2022-11-06T07:39:59.329Z,61.24
2022-11-06T07:40:59.358Z,61.76
2022-11-06T07:41:59.309Z,61.66
2022-11-06T07:42:59.306Z,62.59
2022-11-06T07:43:59.292Z,62.38
2022-11-06T07:44:59.288Z,62.27
2022-11-06T07:45:59.296Z,62.17
2022-11-06T07:46:59.259Z,62.90
2022-11-06T07:47:59.467Z,62.59
2022-11-06T07:48:59.239Z,63.07
2022-11-06T07:49:59.230Z,63.28
2022-11-06T07:50:59.448Z,63.18
2022-11-06T07:51:59.245Z,63.28
2022-11-06T07:52:59.187Z,63.69
2022-11-06T07:53:59.176Z,63.49
2022-11-06T07:54:59.161Z,63.49
2022-11-06T07:55:59.168Z,63.79
2022-11-06T07:56:59.139Z,63.79
2022-11-06T07:57:59.195Z,64.52
2022-11-06T07:58:59.108Z,64.11
2022-11-06T07:59:59.149Z,64.31
2022-11-06T08:00:59.425Z,64.11
2022-11-06T08:01:59.156Z,64.21
2022-11-06T08:02:59.070Z,64.39
2022-11-06T08:03:59.223Z,65.00
2022-11-06T08:04:59.080Z,64.90
2022-11-06T08:05:59.061Z,65.31
2022-11-06T08:06:59.073Z,65.00
2022-11-06T08:07:59.009Z,65.11
2022-11-06T08:08:59.289Z,65.00
2022-11-06T08:09:59.017Z,65.39
2022-11-06T08:10:58.985Z,65.70
2022-11-06T08:11:59.028Z,66.42
2022-11-06T08:12:58.954Z,67.03
2022-11-06T08:13:58.949Z,67.45
2022-11-06T08:14:58.962Z,67.66
2022-11-06T08:15:59.141Z,68.69
2022-11-06T08:16:58.933Z,68.59
2022-11-06T08:17:58.948Z,68.90
2022-11-06T08:18:59.088Z,68.79
2022-11-06T08:19:59.502Z,68.96
2022-11-06T08:20:58.890Z,68.96
2022-11-06T08:21:58.915Z,69.59
2022-11-06T08:22:58.851Z,70.13
2022-11-06T08:23:59.008Z,69.79
2022-11-06T08:24:58.822Z,70.31
2022-11-06T08:25:58.891Z,69.89
2022-11-06T08:26:58.826Z,69.89
2022-11-06T08:27:59.252Z,70.62
2022-11-06T08:28:58.764Z,70.72
2022-11-06T08:29:58.753Z,70.82
2022-11-06T08:30:58.879Z,71.06
2022-11-06T08:31:59.057Z,70.72
2022-11-06T08:32:59.566Z,70.31
2022-11-06T08:33:58.813Z,70.62
2022-11-06T08:34:59.235Z,70.62
2022-11-06T08:35:58.693Z,70.51
2022-11-06T08:36:59.183Z,70.92
2022-11-06T08:37:58.675Z,71.03
2022-11-06T08:38:58.656Z,70.72
2022-11-06T08:39:58.656Z,71.13
2022-11-06T08:40:58.636Z,71.03
2022-11-06T08:41:58.753Z,71.75
2022-11-06T08:42:58.633Z,71.64
2022-11-06T08:43:58.920Z,71.51
2022-11-06T08:44:58.648Z,72.13
2022-11-06T08:45:58.812Z,71.72
2022-11-06T08:46:58.575Z,71.30
2022-11-06T08:47:58.575Z,71.61
2022-11-06T08:48:58.559Z,72.54
2022-11-06T08:49:58.565Z,72.85
2022-11-06T08:50:58.645Z,72.64
2022-11-06T08:51:58.516Z,73.02
2022-11-06T08:52:58.498Z,73.43
2022-11-06T08:53:58.581Z,73.33
2022-11-06T08:54:58.547Z,74.36
2022-11-06T08:55:58.477Z,74.36
2022-11-06T08:56:58.511Z,74.67
2022-11-06T08:57:58.436Z,74.77
2022-11-06T08:58:58.768Z,74.77
2022-11-06T08:59:58.526Z,74.26
2022-11-06T09:00:58.442Z,74.77
2022-11-06T09:01:58.510Z,75.08
2022-11-06T09:02:58.391Z,75.90
2022-11-06T09:03:58.369Z,77.04
2022-11-06T09:04:58.368Z,77.45
2022-11-06T09:05:58.428Z,77.14
2022-11-06T09:06:58.362Z,76.73
2022-11-06T09:07:58.356Z,76.79
2022-11-06T09:08:58.329Z,76.90
2022-11-06T09:09:58.308Z,78.14
2022-11-06T09:10:59.000Z,78.75
2022-11-06T09:11:58.298Z,78.58
2022-11-06T09:12:58.496Z,79.20
2022-11-06T09:13:58.270Z,79.20
2022-11-06T09:14:58.258Z,78.89
2022-11-06T09:15:58.248Z,78.58
2022-11-06T09:16:58.261Z,78.44
2022-11-06T09:17:58.313Z,78.48
2022-11-06T09:18:58.221Z,78.17
2022-11-06T09:19:58.224Z,78.44
2022-11-06T09:20:58.200Z,78.96
2022-11-06T09:21:58.172Z,78.34
2022-11-06T09:22:58.192Z,78.65
2022-11-06T09:23:58.158Z,78.24
2022-11-06T09:25:03.822Z,78.44
2022-11-06T09:25:59.140Z,79.37
2022-11-06T09:26:58.170Z,79.88
2022-11-06T09:27:59.683Z,79.27
2022-11-06T09:28:58.142Z,79.58
2022-11-06T09:29:58.082Z,80.51
2022-11-06T09:30:59.194Z,81.49
2022-11-06T09:31:58.060Z,82.11
2022-11-06T09:32:58.055Z,82.53
2022-11-06T09:33:58.117Z,82.53
2022-11-06T09:34:58.021Z,83.04
2022-11-06T09:35:58.034Z,83.14
2022-11-06T09:36:58.129Z,83.25
2022-11-06T09:37:57.984Z,83.72
2022-11-06T09:38:57.982Z,84.23
2022-11-06T09:40:03.191Z,83.83
2022-11-06T09:40:58.997Z,84.13
2022-11-06T09:41:59.404Z,85.43
2022-11-06T09:42:57.933Z,85.98
2022-11-06T09:44:05.187Z,86.80
2022-11-06T09:44:58.945Z,85.22
2022-11-06T09:45:57.894Z,85.22
2022-11-06T09:46:57.885Z,85.63
2022-11-06T09:47:57.893Z,85.94
2022-11-06T09:48:57.873Z,87.07
2022-11-06T09:49:57.878Z,87.04
2022-11-06T09:50:57.876Z,87.55
2022-11-06T09:51:58.000Z,86.32
2022-11-06T09:53:03.062Z,87.34
2022-11-06T09:53:58.865Z,87.13
2022-11-06T09:55:00.294Z,87.96
2022-11-06T09:55:57.816Z,87.96
2022-11-06T09:56:57.786Z,88.72
2022-11-06T09:57:57.757Z,87.90
2022-11-06T09:58:57.745Z,87.55
2022-11-06T09:59:57.768Z,87.45
2022-11-06T10:00:57.786Z,87.61
2022-11-06T10:01:57.859Z,87.92
2022-11-06T10:02:57.784Z,89.46
2022-11-06T10:03:57.685Z,89.50
2022-11-06T10:04:57.717Z,89.60
2022-11-06T10:05:57.674Z,89.40
2022-11-06T10:06:57.668Z,89.54
2022-11-06T10:07:57.716Z,89.40
2022-11-06T10:08:57.644Z,88.68
2022-11-06T10:09:57.617Z,88.06
2022-11-06T10:10:57.612Z,87.45
2022-11-06T10:11:57.623Z,87.55
2022-11-06T10:12:57.616Z,87.92
2022-11-06T10:13:57.599Z,88.23
2022-11-06T10:14:57.558Z,88.84
2022-11-06T10:15:57.556Z,89.15
2022-11-06T10:16:57.538Z,89.15
2022-11-06T10:17:57.544Z,89.21
2022-11-06T10:18:57.554Z,89.42
2022-11-06T10:19:57.511Z,89.83
2022-11-06T10:20:57.489Z,90.55
2022-11-06T10:21:57.481Z,90.09
2022-11-06T10:22:57.472Z,90.40
2022-11-06T10:23:57.473Z,91.53
2022-11-06T10:24:57.509Z,92.46
2022-11-06T10:25:57.449Z,91.63
2022-11-06T10:26:57.429Z,92.55
2022-11-06T10:27:57.463Z,93.48
2022-11-06T10:28:57.442Z,92.86
2022-11-06T10:29:57.428Z,92.76
2022-11-06T10:30:57.391Z,93.79
2022-11-06T10:31:57.408Z,93.68
2022-11-06T10:32:57.370Z,94.05
2022-11-06T10:33:57.363Z,94.26
2022-11-06T10:34:57.347Z,94.83
2022-11-06T10:35:57.362Z,95.24
2022-11-06T10:36:57.402Z,94.73
2022-11-06T10:37:57.313Z,94.11
2022-11-06T10:38:57.390Z,95.34
2022-11-06T10:39:57.282Z,96.26
2022-11-06T10:40:57.287Z,96.06
2022-11-06T10:41:57.410Z,96.26
2022-11-06T10:42:57.273Z,95.75
2022-11-06T10:43:57.251Z,95.44
2022-11-06T10:44:57.271Z,95.54
2022-11-06T10:45:57.222Z,95.95
2022-11-06T10:46:57.201Z,95.86
2022-11-06T10:47:58.413Z,95.75
2022-11-06T10:48:57.222Z,95.28
2022-11-06T10:49:57.214Z,94.93
2022-11-06T10:50:57.182Z,94.73
2022-11-06T10:51:57.198Z,96.57
2022-11-06T10:52:57.216Z,97.08
2022-11-06T10:53:57.168Z,96.62
2022-11-06T10:54:57.119Z,96.62
2022-11-06T10:55:57.104Z,96.51
2022-11-06T10:56:57.159Z,96.92
2022-11-06T10:57:57.099Z,96.20
2022-11-06T10:58:57.114Z,95.54
2022-11-06T10:59:57.143Z,95.34
2022-11-06T11:00:57.068Z,96.98
2022-11-06T11:01:57.398Z,97.29
2022-11-06T11:02:57.027Z,96.37
2022-11-06T11:03:57.107Z,97.14
2022-11-06T11:04:58.210Z,98.00
2022-11-06T11:05:56.998Z,96.67
2022-11-06T11:06:57.020Z,97.34
2022-11-06T11:07:56.993Z,96.32
2022-11-06T11:08:56.979Z,98.27
2022-11-06T11:09:56.954Z,98.58
2022-11-06T11:11:04.889Z,98.52
2022-11-06T11:11:57.923Z,98.07
2022-11-06T11:12:56.914Z,98.27
2022-11-06T11:13:56.916Z,97.24
2022-11-06T11:14:56.894Z,98.07
2022-11-06T11:15:56.876Z,97.86
2022-11-06T11:16:56.942Z,97.34
2022-11-06T11:17:56.858Z,98.27
2022-11-06T11:18:56.848Z,98.68
2022-11-06T11:19:56.817Z,98.27
2022-11-06T11:20:56.825Z,97.50
2022-11-06T11:21:56.877Z,98.12
2022-11-06T11:22:56.880Z,97.81
2022-11-06T11:23:56.873Z,98.43
2022-11-06T11:24:56.774Z,98.33
2022-11-06T11:25:56.750Z,98.27
2022-11-06T11:26:56.747Z,98.02
2022-11-06T11:27:59.713Z,98.12
2022-11-06T11:28:57.767Z,97.71
2022-11-06T11:29:56.710Z,98.53
2022-11-06T11:30:56.700Z,98.22
2022-11-06T11:31:56.697Z,98.94
2022-11-06T11:32:56.799Z,98.33
2022-11-06T11:33:56.670Z,98.79
2022-11-06T11:34:57.160Z,98.99
2022-11-06T11:35:56.639Z,99.30
2022-11-06T11:36:56.631Z,99.20
2022-11-06T11:37:56.631Z,99.99
2022-11-06T11:38:56.610Z,99.99
2022-11-06T11:39:56.623Z,99.91
2022-11-06T11:40:56.633Z,99.99
2022-11-06T11:41:56.571Z,99.99
2022-11-06T11:42:56.587Z,99.99
2022-11-06T11:43:56.554Z,99.99
2022-11-06T11:44:56.552Z,99.99
2022-11-06T11:45:56.542Z,99.99
2022-11-06T11:46:56.626Z,99.99
2022-11-06T11:47:56.502Z,99.99
2022-11-06T11:48:56.504Z,99.99
2022-11-06T11:49:56.486Z,99.99
2022-11-06T11:50:56.482Z,99.99
2022-11-06T11:51:56.511Z,99.99
2022-11-06T11:52:56.468Z,99.99
2022-11-06T11:53:56.446Z,99.91
2022-11-06T11:54:56.448Z,99.99
2022-11-06T11:55:56.442Z,99.99
2022-11-06T11:57:05.204Z,99.99
2022-11-06T11:57:57.427Z,99.99
2022-11-06T11:58:56.555Z,99.99
2022-11-06T11:59:56.379Z,99.99
2022-11-06T12:00:56.391Z,99.99
2022-11-06T12:01:56.500Z,99.91
2022-11-06T12:02:56.499Z,99.82
2022-11-06T12:03:56.324Z,99.99
2022-11-06T12:04:56.317Z,99.82
2022-11-06T12:05:56.295Z,99.71
2022-11-06T12:06:56.440Z,99.91
2022-11-06T12:07:56.295Z,99.77
2022-11-06T12:08:56.303Z,99.77
2022-11-06T12:09:56.298Z,99.87
2022-11-06T12:10:56.295Z,99.87
2022-11-06T12:11:56.268Z,99.99
2022-11-06T12:12:56.235Z,99.87
2022-11-06T12:13:56.236Z,99.99
2022-11-06T12:14:56.256Z,99.99
2022-11-06T12:15:56.195Z,99.77
2022-11-06T12:16:56.197Z,99.66
2022-11-06T12:17:56.168Z,99.99
2022-11-06T12:18:59.082Z,99.77
2022-11-06T12:19:56.149Z,99.62
2022-11-06T12:20:56.167Z,99.99
2022-11-06T12:21:56.118Z,99.99
2022-11-06T12:22:56.116Z,99.99
2022-11-06T12:23:56.102Z,99.99
2022-11-06T12:24:56.082Z,99.99
2022-11-06T12:25:56.087Z,99.99
2022-11-06T12:26:56.107Z,99.99
2022-11-06T12:27:56.157Z,99.99
2022-11-06T12:28:59.379Z,99.99
2022-11-06T12:29:57.041Z,99.99
2022-11-06T12:30:56.042Z,99.99
2022-11-06T12:31:55.998Z,99.99
2022-11-06T12:32:57.222Z,99.99
2022-11-06T12:34:06.882Z,99.99
2022-11-06T12:34:57.048Z,99.99
2022-11-06T12:35:55.969Z,99.99
2022-11-06T12:36:55.941Z,99.99
2022-11-06T12:37:55.978Z,99.99
2022-11-06T12:38:55.977Z,99.93
2022-11-06T12:39:55.912Z,99.99
2022-11-06T12:40:55.912Z,99.99
2022-11-06T12:41:55.900Z,99.99
2022-11-06T12:42:55.890Z,99.99
2022-11-06T12:43:55.870Z,99.99
2022-11-06T12:44:55.911Z,99.99
2022-11-06T12:45:55.848Z,99.99
2022-11-06T12:46:55.852Z,99.98
2022-11-06T12:47:55.819Z,99.99
2022-11-06T12:48:55.818Z,99.99
2022-11-06T12:49:55.811Z,99.99
2022-11-06T12:50:55.832Z,99.99
2022-11-06T12:51:55.761Z,99.99